Hlavní strana
METAR-TAF:

METAR-TAF

Letiště :

Mildura, Austrálie

zeměpisná šířka: 34-13-45S, zeměpisná délka: 142-05-08E, výška: 51 m

Aktuální stav počasí

Zpráva byla vytvořena před 1 hodinou a 1 minutami, v 04:00 UTC
Jižní vítr 5 kt, proměnlivý mezi jihovýchodním a jihozápadním
Teplota 19°C
Vlhkost vzduchu 43%
Tlak 1022 hPa
Viditelnost 10 km a více
Oblačno až skoro zataženo ve výšce 5400 ft

METAR: YMIA 070400Z AUTO 17005KT 140V230 9999 // BKN054 19/06 Q1022

Čas: 15:01 (05:01 UTC)


TAF: chybějící

Stav a předpovědi počasí z více než 4 000 letišť (zprávy METAR a TAF).

Červené a žluté tečky na mapě představují dostupné meteorologické stanice.

Když kurzor umístíte na tečku, zobrazí se název stanice.

Pak kliknutím zobrazíte stav a předpověď počasí.

Chcete-li změnit mapu, kliknutím na zelené tlačítko se znaménkem +mapu přiblížíte, kliknutím na zelené tlačítko se znaménkem – mapu oddálíte a kliknutím na zelené šipky přejdete na sousední mapy.


METAR-TAF: